sensor_id;sensor_type;location;lat;lon;timestamp;pressure;altitude;pressure_sealevel;temperature;humidity
4586;BME280;2305;50.118;8.952;2023-01-26T00:00:31;101336.66;;;2.72;100.00
4586;BME280;2305;50.118;8.952;2023-01-26T00:03:00;101332.28;;;2.72;100.00
4586;BME280;2305;50.118;8.952;2023-01-26T00:05:32;101323.75;;;2.69;100.00
4586;BME280;2305;50.118;8.952;2023-01-26T00:08:04;101322.00;;;2.69;100.00
4586;BME280;2305;50.118;8.952;2023-01-26T00:10:34;101318.59;;;2.67;100.00
4586;BME280;2305;50.118;8.952;2023-01-26T00:13:05;101315.31;;;2.62;100.00
4586;BME280;2305;50.118;8.952;2023-01-26T00:15:34;101314.44;;;2.62;100.00
4586;BME280;2305;50.118;8.952;2023-01-26T00:18:03;101315.31;;;2.62;100.00
4586;BME280;2305;50.118;8.952;2023-01-26T00:20:33;101310.13;;;2.61;100.00
4586;BME280;2305;50.118;8.952;2023-01-26T00:23:04;101311.91;;;2.60;100.00
4586;BME280;2305;50.118;8.952;2023-01-26T00:25:36;101310.13;;;2.61;100.00
4586;BME280;2305;50.118;8.952;2023-01-26T00:28:06;101306.63;;;2.62;100.00
4586;BME280;2305;50.118;8.952;2023-01-26T00:30:34;101306.78;;;2.57;100.00
4586;BME280;2305;50.118;8.952;2023-01-26T00:33:02;101294.56;;;2.59;100.00
4586;BME280;2305;50.118;8.952;2023-01-26T00:35:32;101297.06;;;2.64;100.00
4586;BME280;2305;50.118;8.952;2023-01-26T00:38:01;101296.06;;;2.66;100.00
4586;BME280;2305;50.118;8.952;2023-01-26T00:40:29;101293.44;;;2.68;100.00
4586;BME280;2305;50.118;8.952;2023-01-26T00:42:59;101286.66;;;2.64;100.00
4586;BME280;2305;50.118;8.952;2023-01-26T00:45:30;101289.25;;;2.64;100.00
4586;BME280;2305;50.118;8.952;2023-01-26T00:47:58;101295.25;;;2.66;100.00
4586;BME280;2305;50.118;8.952;2023-01-26T00:50:28;101292.78;;;2.61;100.00
4586;BME280;2305;50.118;8.952;2023-01-26T00:52:58;101286.69;;;2.62;100.00
4586;BME280;2305;50.118;8.952;2023-01-26T00:55:26;101296.22;;;2.62;100.00
4586;BME280;2305;50.118;8.952;2023-01-26T00:57:59;101293.75;;;2.59;100.00
4586;BME280;2305;50.118;8.952;2023-01-26T01:00:29;101301.50;;;2.60;100.00
4586;BME280;2305;50.118;8.952;2023-01-26T01:02:58;101298.00;;;2.61;100.00
4586;BME280;2305;50.118;8.952;2023-01-26T01:05:28;101284.09;;;2.62;100.00
4586;BME280;2305;50.118;8.952;2023-01-26T01:07:58;101286.66;;;2.64;100.00
4586;BME280;2305;50.118;8.952;2023-01-26T01:10:28;101298.00;;;2.61;100.00
4586;BME280;2305;50.118;8.952;2023-01-26T01:12:58;101298.09;;;2.58;100.00
4586;BME280;2305;50.118;8.952;2023-01-26T01:15:26;101298.25;;;2.54;100.00
4586;BME280;2305;50.118;8.952;2023-01-26T01:17:54;101294.88;;;2.50;100.00
4586;BME280;2305;50.118;8.952;2023-01-26T01:20:22;101291.47;;;2.50;100.00
4586;BME280;2305;50.118;8.952;2023-01-26T01:22:51;101290.28;;;2.58;100.00
4586;BME280;2305;50.118;8.952;2023-01-26T01:25:21;101294.16;;;2.47;100.00
4586;BME280;2305;50.118;8.952;2023-01-26T01:27:49;101296.84;;;2.44;100.00
4586;BME280;2305;50.118;8.952;2023-01-26T01:30:18;101292.50;;;2.44;100.00
4586;BME280;2305;50.118;8.952;2023-01-26T01:32:46;101285.56;;;2.45;100.00
4586;BME280;2305;50.118;8.952;2023-01-26T01:35:17;101284.69;;;2.44;100.00
4586;BME280;2305;50.118;8.952;2023-01-26T01:37:47;101296.00;;;2.43;100.00
4586;BME280;2305;50.118;8.952;2023-01-26T01:40:18;101292.66;;;2.40;100.00
4586;BME280;2305;50.118;8.952;2023-01-26T01:42:48;101294.31;;;2.42;100.00
4586;BME280;2305;50.118;8.952;2023-01-26T01:45:41;101296.19;;;2.37;100.00
4586;BME280;2305;50.118;8.952;2023-01-26T01:48:20;101287.44;;;2.40;100.00
4586;BME280;2305;50.118;8.952;2023-01-26T01:50:53;101283.94;;;2.41;100.00
4586;BME280;2305;50.118;8.952;2023-01-26T01:53:25;101291.81;;;2.39;100.00
4586;BME280;2305;50.118;8.952;2023-01-26T01:55:57;101299.69;;;2.36;100.00
4586;BME280;2305;50.118;8.952;2023-01-26T01:58:32;101294.44;;;2.38;100.00
4586;BME280;2305;50.118;8.952;2023-01-26T02:01:03;101291.91;;;2.36;100.00
4586;BME280;2305;50.118;8.952;2023-01-26T02:03:32;101287.56;;;2.37;100.00
4586;BME280;2305;50.118;8.952;2023-01-26T02:06:05;101284.91;;;2.38;100.00
4586;BME280;2305;50.118;8.952;2023-01-26T02:08:37;101278.97;;;2.35;100.00
4586;BME280;2305;50.118;8.952;2023-01-26T02:11:09;101275.19;;;2.43;100.00
4586;BME280;2305;50.118;8.952;2023-01-26T02:13:45;101272.00;;;2.35;100.00
4586;BME280;2305;50.118;8.952;2023-01-26T02:16:15;101269.44;;;2.34;100.00
4586;BME280;2305;50.118;8.952;2023-01-26T02:18:46;101274.72;;;2.32;100.00
4586;BME280;2305;50.118;8.952;2023-01-26T02:21:15;101270.47;;;2.30;100.00
4586;BME280;2305;50.118;8.952;2023-01-26T02:23:53;101266.03;;;2.32;100.00
4586;BME280;2305;50.118;8.952;2023-01-26T02:26:27;101261.78;;;2.29;100.00
4586;BME280;2305;50.118;8.952;2023-01-26T02:28:56;101260.09;;;2.28;100.00
4586;BME280;2305;50.118;8.952;2023-01-26T02:31:27;101267.94;;;2.27;100.00
4586;BME280;2305;50.118;8.952;2023-01-26T02:33:56;101262.00;;;2.23;100.00
4586;BME280;2305;50.118;8.952;2023-01-26T02:36:27;101263.00;;;2.19;100.00
4586;BME280;2305;50.118;8.952;2023-01-26T02:39:07;101256.94;;;2.19;100.00
4586;BME280;2305;50.118;8.952;2023-01-26T02:41:41;101258.75;;;2.17;100.00
4586;BME280;2305;50.118;8.952;2023-01-26T02:44:28;101255.28;;;2.16;100.00
4586;BME280;2305;50.118;8.952;2023-01-26T02:46:56;101251.94;;;2.13;100.00
4586;BME280;2305;50.118;8.952;2023-01-26T02:49:25;101245.13;;;2.10;100.00
4586;BME280;2305;50.118;8.952;2023-01-26T02:52:12;101246.81;;;2.11;100.00
4586;BME280;2305;50.118;8.952;2023-01-26T02:54:43;101243.53;;;2.05;100.00
4586;BME280;2305;50.118;8.952;2023-01-26T02:57:31;101236.63;;;2.05;100.00
4586;BME280;2305;50.118;8.952;2023-01-26T03:00:08;101235.72;;;2.06;100.00
4586;BME280;2305;50.118;8.952;2023-01-26T03:02:37;101232.19;;;2.07;100.00
4586;BME280;2305;50.118;8.952;2023-01-26T03:05:07;101226.09;;;2.08;100.00
4586;BME280;2305;50.118;8.952;2023-01-26T03:07:37;101225.28;;;2.08;100.00
4586;BME280;2305;50.118;8.952;2023-01-26T03:10:10;101219.22;;;2.07;100.00
4586;BME280;2305;50.118;8.952;2023-01-26T03:12:43;101219.22;;;2.07;100.00
4586;BME280;2305;50.118;8.952;2023-01-26T03:15:12;101220.97;;;2.07;100.00
4586;BME280;2305;50.118;8.952;2023-01-26T03:18:02;101211.38;;;2.09;100.00
4586;BME280;2305;50.118;8.952;2023-01-26T03:20:49;101213.09;;;2.08;100.00
4586;BME280;2305;50.118;8.952;2023-01-26T03:23:35;101202.72;;;2.08;100.00
4586;BME280;2305;50.118;8.952;2023-01-26T03:26:23;101208.84;;;2.06;100.00
4586;BME280;2305;50.118;8.952;2023-01-26T03:29:11;101204.63;;;2.03;100.00
4586;BME280;2305;50.118;8.952;2023-01-26T03:31:40;101196.91;;;2.00;100.00
4586;BME280;2305;50.118;8.952;2023-01-26T03:34:09;101209.88;;;2.02;100.00
4586;BME280;2305;50.118;8.952;2023-01-26T03:36:38;101208.09;;;2.02;100.00
4586;BME280;2305;50.118;8.952;2023-01-26T03:39:11;101203.03;;;1.99;100.00
4586;BME280;2305;50.118;8.952;2023-01-26T03:42:00;101205.72;;;1.96;100.00
4586;BME280;2305;50.118;8.952;2023-01-26T03:44:48;101207.63;;;1.91;100.00
4586;BME280;2305;50.118;8.952;2023-01-26T03:47:35;101202.38;;;1.93;100.00
4586;BME280;2305;50.118;8.952;2023-01-26T03:50:22;101198.88;;;1.94;100.00
4586;BME280;2305;50.118;8.952;2023-01-26T03:53:12;101191.00;;;1.95;100.00
4586;BME280;2305;50.118;8.952;2023-01-26T03:55:58;101197.19;;;1.93;100.00
4586;BME280;2305;50.118;8.952;2023-01-26T03:58:52;101196.38;;;1.91;100.00
4586;BME280;2305;50.118;8.952;2023-01-26T04:01:27;101189.53;;;1.88;100.00
4586;BME280;2305;50.118;8.952;2023-01-26T04:03:59;101195.53;;;1.90;100.00
4586;BME280;2305;50.118;8.952;2023-01-26T04:06:47;101190.41;;;1.87;100.00
4586;BME280;2305;50.118;8.952;2023-01-26T04:09:36;101185.13;;;1.90;100.00
4586;BME280;2305;50.118;8.952;2023-01-26T04:12:06;101186.03;;;1.89;100.00
4586;BME280;2305;50.118;8.952;2023-01-26T04:14:44;101179.22;;;1.85;100.00
4586;BME280;2305;50.118;8.952;2023-01-26T04:17:31;101174.78;;;1.89;100.00
4586;BME280;2305;50.118;8.952;2023-01-26T04:20:18;101171.41;;;1.87;100.00
4586;BME280;2305;50.118;8.952;2023-01-26T04:23:04;101176.63;;;1.85;100.00
4586;BME280;2305;50.118;8.952;2023-01-26T04:25:33;101170.69;;;1.82;100.00
4586;BME280;2305;50.118;8.952;2023-01-26T04:28:02;101177.53;;;1.84;100.00
4586;BME280;2305;50.118;8.952;2023-01-26T04:30:31;101174.03;;;1.85;100.00
4586;BME280;2305;50.118;8.952;2023-01-26T04:33:02;101165.25;;;1.89;100.00
4586;BME280;2305;50.118;8.952;2023-01-26T04:35:31;101155.53;;;1.94;100.00
4586;BME280;2305;50.118;8.952;2023-01-26T04:37:59;101153.06;;;1.91;100.00
4586;BME280;2305;50.118;8.952;2023-01-26T04:40:30;101159.25;;;1.87;100.00
4586;BME280;2305;50.118;8.952;2023-01-26T04:42:58;101154.78;;;1.91;100.00
4586;BME280;2305;50.118;8.952;2023-01-26T04:45:26;101146.97;;;1.92;100.00
4586;BME280;2305;50.118;8.952;2023-01-26T04:47:55;101150.47;;;1.91;100.00
4586;BME280;2305;50.118;8.952;2023-01-26T04:50:25;101151.38;;;1.90;100.00
4586;BME280;2305;50.118;8.952;2023-01-26T04:52:53;101151.31;;;1.92;100.00
4586;BME280;2305;50.118;8.952;2023-01-26T04:55:22;101153.97;;;1.90;100.00
4586;BME280;2305;50.118;8.952;2023-01-26T04:57:51;101151.59;;;1.83;100.00
4586;BME280;2305;50.118;8.952;2023-01-26T05:00:21;101147.22;;;1.85;100.00
4586;BME280;2305;50.118;8.952;2023-01-26T05:02:51;101145.47;;;1.85;100.00
4586;BME280;2305;50.118;8.952;2023-01-26T05:05:19;101142.88;;;1.85;100.00
4586;BME280;2305;50.118;8.952;2023-01-26T05:07:52;101137.66;;;1.85;100.00
4586;BME280;2305;50.118;8.952;2023-01-26T05:10:21;101135.88;;;1.87;100.00
4586;BME280;2305;50.118;8.952;2023-01-26T05:13:12;101143.63;;;1.89;100.00
4586;BME280;2305;50.118;8.952;2023-01-26T05:15:59;101152.47;;;1.83;100.00
4586;BME280;2305;50.118;8.952;2023-01-26T05:18:50;101148.97;;;1.84;100.00
4586;BME280;2305;50.118;8.952;2023-01-26T05:21:41;101157.69;;;1.82;100.00
4586;BME280;2305;50.118;8.952;2023-01-26T05:24:12;101141.38;;;1.78;100.00
4586;BME280;2305;50.118;8.952;2023-01-26T05:26:58;101145.56;;;1.82;100.00
4586;BME280;2305;50.118;8.952;2023-01-26T05:29:43;101147.31;;;1.82;100.00
4586;BME280;2305;50.118;8.952;2023-01-26T05:32:11;101138.56;;;1.84;100.00
4586;BME280;2305;50.118;8.952;2023-01-26T05:34:43;101148.09;;;1.84;100.00
4586;BME280;2305;50.118;8.952;2023-01-26T05:37:12;101148.19;;;1.82;100.00
4586;BME280;2305;50.118;8.952;2023-01-26T05:39:45;101146.53;;;1.80;100.00
4586;BME280;2305;50.118;8.952;2023-01-26T05:42:14;101153.56;;;1.76;100.00
4586;BME280;2305;50.118;8.952;2023-01-26T05:45:01;101158.75;;;1.76;100.00
4586;BME280;2305;50.118;8.952;2023-01-26T05:47:30;101154.31;;;1.80;100.00
4586;BME280;2305;50.118;8.952;2023-01-26T05:50:00;101162.94;;;1.80;100.00
4586;BME280;2305;50.118;8.952;2023-01-26T05:52:30;101159.50;;;1.80;100.00
4586;BME280;2305;50.118;8.952;2023-01-26T05:55:00;101168.38;;;1.74;100.00
4586;BME280;2305;50.118;8.952;2023-01-26T05:57:28;101175.19;;;1.77;100.00
4586;BME280;2305;50.118;8.952;2023-01-26T06:00:03;101167.50;;;1.74;100.00
4586;BME280;2305;50.118;8.952;2023-01-26T06:02:39;101179.69;;;1.72;100.00
4586;BME280;2305;50.118;8.952;2023-01-26T06:05:11;101174.50;;;1.72;100.00
4586;BME280;2305;50.118;8.952;2023-01-26T06:07:43;101176.03;;;1.77;100.00
4586;BME280;2305;50.118;8.952;2023-01-26T06:10:24;101185.63;;;1.75;100.00
4586;BME280;2305;50.118;8.952;2023-01-26T06:13:03;101190.75;;;1.77;100.00
4586;BME280;2305;50.118;8.952;2023-01-26T06:15:46;101182.88;;;1.80;100.00
4586;BME280;2305;50.118;8.952;2023-01-26T06:18:15;101184.75;;;1.76;100.00
4586;BME280;2305;50.118;8.952;2023-01-26T06:20:49;101191.75;;;1.74;100.00
4586;BME280;2305;50.118;8.952;2023-01-26T06:23:17;101184.69;;;1.78;100.00
4586;BME280;2305;50.118;8.952;2023-01-26T06:25:47;101194.06;;;1.82;100.00
4586;BME280;2305;50.118;8.952;2023-01-26T06:28:20;101192.25;;;1.84;100.00
4586;BME280;2305;50.118;8.952;2023-01-26T06:30:48;101185.38;;;1.83;100.00
4586;BME280;2305;50.118;8.952;2023-01-26T06:33:18;101191.50;;;1.80;100.00
4586;BME280;2305;50.118;8.952;2023-01-26T06:35:49;101191.63;;;1.77;100.00
4586;BME280;2305;50.118;8.952;2023-01-26T06:38:18;101194.53;;;1.68;100.00
4586;BME280;2305;50.118;8.952;2023-01-26T06:40:50;101186.81;;;1.65;100.00
4586;BME280;2305;50.118;8.952;2023-01-26T06:43:18;101185.78;;;1.71;100.00
4586;BME280;2305;50.118;8.952;2023-01-26T06:45:46;101185.78;;;1.71;100.00
4586;BME280;2305;50.118;8.952;2023-01-26T06:48:15;101185.72;;;1.72;100.00
4586;BME280;2305;50.118;8.952;2023-01-26T06:50:44;101190.88;;;1.74;100.00
4586;BME280;2305;50.118;8.952;2023-01-26T06:53:24;101182.13;;;1.76;100.00
4586;BME280;2305;50.118;8.952;2023-01-26T06:56:14;101187.38;;;1.75;100.00
4586;BME280;2305;50.118;8.952;2023-01-26T06:58:55;101187.38;;;1.75;100.00
4586;BME280;2305;50.118;8.952;2023-01-26T07:01:50;101188.16;;;1.77;100.00
4586;BME280;2305;50.118;8.952;2023-01-26T07:04:18;101191.63;;;1.77;100.00
4586;BME280;2305;50.118;8.952;2023-01-26T07:06:47;101203.72;;;1.78;100.00
4586;BME280;2305;50.118;8.952;2023-01-26T07:09:15;101199.38;;;1.79;100.00
4586;BME280;2305;50.118;8.952;2023-01-26T07:11:44;101201.91;;;1.80;100.00
4586;BME280;2305;50.118;8.952;2023-01-26T07:14:12;101196.66;;;1.82;100.00
4586;BME280;2305;50.118;8.952;2023-01-26T07:16:43;101195.72;;;1.84;100.00
4586;BME280;2305;50.118;8.952;2023-01-26T07:19:11;101206.09;;;1.86;100.00
4586;BME280;2305;50.118;8.952;2023-01-26T07:21:39;101211.28;;;1.86;100.00
4586;BME280;2305;50.118;8.952;2023-01-26T07:24:08;101207.84;;;1.84;100.00
4586;BME280;2305;50.118;8.952;2023-01-26T07:26:36;101211.19;;;1.87;100.00
4586;BME280;2305;50.118;8.952;2023-01-26T07:29:05;101208.59;;;1.87;100.00
4586;BME280;2305;50.118;8.952;2023-01-26T07:31:34;101210.34;;;1.88;100.00
4586;BME280;2305;50.118;8.952;2023-01-26T07:34:04;101212.09;;;1.86;100.00
4586;BME280;2305;50.118;8.952;2023-01-26T07:36:32;101214.78;;;1.85;100.00
4586;BME280;2305;50.118;8.952;2023-01-26T07:39:01;101210.41;;;1.85;100.00
4586;BME280;2305;50.118;8.952;2023-01-26T07:41:29;101199.97;;;1.87;100.00
4586;BME280;2305;50.118;8.952;2023-01-26T07:43:57;101203.22;;;1.93;100.00
4586;BME280;2305;50.118;8.952;2023-01-26T07:46:27;101203.38;;;1.89;100.00
4586;BME280;2305;50.118;8.952;2023-01-26T07:48:55;101211.09;;;1.92;100.00
4586;BME280;2305;50.118;8.952;2023-01-26T07:51:24;101210.34;;;1.88;100.00
4586;BME280;2305;50.118;8.952;2023-01-26T07:53:52;101211.09;;;1.92;100.00
4586;BME280;2305;50.118;8.952;2023-01-26T07:56:20;101207.50;;;1.94;100.00
4586;BME280;2305;50.118;8.952;2023-01-26T07:58:51;101210.06;;;1.96;100.00
4586;BME280;2305;50.118;8.952;2023-01-26T08:01:22;101209.19;;;1.95;100.00
4586;BME280;2305;50.118;8.952;2023-01-26T08:03:52;101204.91;;;1.94;100.00
4586;BME280;2305;50.118;8.952;2023-01-26T08:06:21;101210.84;;;1.98;100.00
4586;BME280;2305;50.118;8.952;2023-01-26T08:08:51;101215.38;;;1.93;100.00
4586;BME280;2305;50.118;8.952;2023-01-26T08:11:21;101219.56;;;1.97;100.00
4586;BME280;2305;50.118;8.952;2023-01-26T08:13:51;101225.91;;;1.88;100.00
4586;BME280;2305;50.118;8.952;2023-01-26T08:16:19;101224.94;;;1.91;100.00
4586;BME280;2305;50.118;8.952;2023-01-26T08:18:53;101220.28;;;2.02;100.00
4586;BME280;2305;50.118;8.952;2023-01-26T08:21:21;101217.56;;;2.05;100.00
4586;BME280;2305;50.118;8.952;2023-01-26T08:23:53;101221.72;;;2.10;100.00
4586;BME280;2305;50.118;8.952;2023-01-26T08:26:21;101218.63;;;1.99;100.00
4586;BME280;2305;50.118;8.952;2023-01-26T08:28:49;101223.81;;;1.99;100.00
4586;BME280;2305;50.118;8.952;2023-01-26T08:31:19;101223.69;;;2.02;100.00
4586;BME280;2305;50.118;8.952;2023-01-26T08:33:50;101227.19;;;2.01;100.00
4586;BME280;2305;50.118;8.952;2023-01-26T08:36:21;101229.94;;;1.97;100.00
4586;BME280;2305;50.118;8.952;2023-01-26T08:38:52;101237.72;;;1.98;100.00
4586;BME280;2305;50.118;8.952;2023-01-26T08:41:21;101231.72;;;1.96;100.00
4586;BME280;2305;50.118;8.952;2023-01-26T08:43:50;101229.88;;;2.00;100.00
4586;BME280;2305;50.118;8.952;2023-01-26T08:46:20;101235.06;;;2.00;100.00
4586;BME280;2305;50.118;8.952;2023-01-26T08:48:48;101231.44;;;2.04;100.00
4586;BME280;2305;50.118;8.952;2023-01-26T08:51:20;101235.81;;;2.03;100.00
4586;BME280;2305;50.118;8.952;2023-01-26T08:53:48;101227.88;;;2.08;100.00
4586;BME280;2305;50.118;8.952;2023-01-26T08:56:22;101231.09;;;2.14;100.00
4586;BME280;2305;50.118;8.952;2023-01-26T08:58:50;101235.31;;;2.18;100.00
4586;BME280;2305;50.118;8.952;2023-01-26T09:01:19;101232.88;;;2.14;100.00
4586;BME280;2305;50.118;8.952;2023-01-26T09:03:48;101233.09;;;2.06;100.00
4586;BME280;2305;50.118;8.952;2023-01-26T09:06:23;101239.66;;;2.18;100.00
4586;BME280;2305;50.118;8.952;2023-01-26T09:08:53;101240.00;;;2.07;100.00
4586;BME280;2305;50.118;8.952;2023-01-26T09:11:21;101237.44;;;2.06;100.00
4586;BME280;2305;50.118;8.952;2023-01-26T09:13:49;101244.22;;;2.11;100.00
4586;BME280;2305;50.118;8.952;2023-01-26T09:16:23;101238.16;;;2.11;100.00
4586;BME280;2305;50.118;8.952;2023-01-26T09:18:54;101239.22;;;2.05;100.00
4586;BME280;2305;50.118;8.952;2023-01-26T09:21:23;101233.09;;;2.06;100.00
4586;BME280;2305;50.118;8.952;2023-01-26T09:23:52;101240.94;;;2.05;100.00
4586;BME280;2305;50.118;8.952;2023-01-26T09:26:23;101243.47;;;2.08;100.00
4586;BME280;2305;50.118;8.952;2023-01-26T09:28:51;101236.50;;;2.08;100.00
4586;BME280;2305;50.118;8.952;2023-01-26T09:31:20;101243.38;;;2.09;100.00
4586;BME280;2305;50.118;8.952;2023-01-26T09:33:48;101245.19;;;2.07;100.00
4586;BME280;2305;50.118;8.952;2023-01-26T09:36:19;101245.19;;;2.07;100.00
4586;BME280;2305;50.118;8.952;2023-01-26T09:38:49;101245.59;;;2.21;100.00
4586;BME280;2305;50.118;8.952;2023-01-26T09:41:33;101240.78;;;2.09;100.00
4586;BME280;2305;50.118;8.952;2023-01-26T09:44:09;101235.75;;;2.05;100.00
4586;BME280;2305;50.118;8.952;2023-01-26T09:46:49;101233.09;;;2.06;100.00
4586;BME280;2305;50.118;8.952;2023-01-26T09:49:25;101238.34;;;2.05;100.00
4586;BME280;2305;50.118;8.952;2023-01-26T09:52:02;101236.06;;;2.22;100.00
4586;BME280;2305;50.118;8.952;2023-01-26T09:54:41;101237.97;;;2.17;100.00
4586;BME280;2305;50.118;8.952;2023-01-26T09:57:15;101248.00;;;2.01;100.00
4586;BME280;2305;50.118;8.952;2023-01-26T09:59:47;101243.22;;;1.89;100.00
4586;BME280;2305;50.118;8.952;2023-01-26T10:02:28;101245.66;;;1.94;100.00
4586;BME280;2305;50.118;8.952;2023-01-26T10:05:09;101233.56;;;1.93;100.00
4586;BME280;2305;50.118;8.952;2023-01-26T10:07:41;101236.19;;;1.91;100.00
4586;BME280;2305;50.118;8.952;2023-01-26T10:10:18;101235.34;;;1.91;100.00
4586;BME280;2305;50.118;8.952;2023-01-26T10:12:52;101231.75;;;1.95;100.00
4586;BME280;2305;50.118;8.952;2023-01-26T10:15:28;101232.41;;;2.01;100.00
4586;BME280;2305;50.118;8.952;2023-01-26T10:18:01;101226.19;;;2.07;100.00
4586;BME280;2305;50.118;8.952;2023-01-26T10:20:35;101221.72;;;2.10;100.00
4586;BME280;2305;50.118;8.952;2023-01-26T10:23:09;101220.16;;;2.05;100.00
4586;BME280;2305;50.118;8.952;2023-01-26T10:25:42;101220.22;;;2.03;100.00
4586;BME280;2305;50.118;8.952;2023-01-26T10:28:13;101221.66;;;2.12;100.00
4586;BME280;2305;50.118;8.952;2023-01-26T10:30:44;101218.25;;;2.10;100.00
4586;BME280;2305;50.118;8.952;2023-01-26T10:33:15;101205.97;;;2.15;100.00
4586;BME280;2305;50.118;8.952;2023-01-26T10:35:45;101213.09;;;2.08;100.00
4586;BME280;2305;50.118;8.952;2023-01-26T10:38:40;101211.56;;;2.03;100.00
4586;BME280;2305;50.118;8.952;2023-01-26T10:41:34;101218.41;;;2.05;100.00
4586;BME280;2305;50.118;8.952;2023-01-26T10:44:20;101210.22;;;2.17;100.00
4586;BME280;2305;50.118;8.952;2023-01-26T10:47:04;101202.78;;;2.07;100.00
4586;BME280;2305;50.118;8.952;2023-01-26T10:49:32;101196.16;;;1.97;100.00
4586;BME280;2305;50.118;8.952;2023-01-26T10:52:06;101195.56;;;1.89;100.00
4586;BME280;2305;50.118;8.952;2023-01-26T10:54:35;101192.91;;;1.92;100.00
4586;BME280;2305;50.118;8.952;2023-01-26T10:57:14;101196.09;;;2.00;100.00
4586;BME280;2305;50.118;8.952;2023-01-26T10:59:48;101200.28;;;2.04;100.00
4586;BME280;2305;50.118;8.952;2023-01-26T11:02:21;101186.44;;;2.03;100.00
4586;BME280;2305;50.118;8.952;2023-01-26T11:05:20;101197.81;;;1.99;100.00
4586;BME280;2305;50.118;8.952;2023-01-26T11:07:50;101182.78;;;2.09;100.00
4586;BME280;2305;50.118;8.952;2023-01-26T11:10:27;101194.53;;;1.94;100.00
4586;BME280;2305;50.118;8.952;2023-01-26T11:13:16;101183.03;;;2.01;100.00
4586;BME280;2305;50.118;8.952;2023-01-26T11:15:47;101164.59;;;1.83;100.00
4586;BME280;2305;50.118;8.952;2023-01-26T11:18:26;101180.09;;;1.86;100.00
4586;BME280;2305;50.118;8.952;2023-01-26T11:20:59;101172.22;;;1.87;100.00
4586;BME280;2305;50.118;8.952;2023-01-26T11:23:41;101167.72;;;1.94;100.00
4586;BME280;2305;50.118;8.952;2023-01-26T11:26:44;101164.94;;;1.98;100.00
4586;BME280;2305;50.118;8.952;2023-01-26T11:29:39;101163.44;;;1.91;100.00
4586;BME280;2305;50.118;8.952;2023-01-26T11:32:16;101165.91;;;1.96;100.00
4586;BME280;2305;50.118;8.952;2023-01-26T11:35:00;101159.63;;;2.01;100.00
4586;BME280;2305;50.118;8.952;2023-01-26T11:37:39;101161.94;;;2.10;100.00
4586;BME280;2305;50.118;8.952;2023-01-26T11:40:21;101158.81;;;2.25;100.00
4586;BME280;2305;50.118;8.952;2023-01-26T11:43:02;101157.00;;;2.27;100.00
4586;BME280;2305;50.118;8.952;2023-01-26T11:45:51;101148.31;;;2.28;100.00
4586;BME280;2305;50.118;8.952;2023-01-26T11:48:31;101144.81;;;2.29;100.00
4586;BME280;2305;50.118;8.952;2023-01-26T11:51:11;101142.28;;;2.28;100.00
4586;BME280;2305;50.118;8.952;2023-01-26T11:54:23;101145.13;;;2.20;100.00
4586;BME280;2305;50.118;8.952;2023-01-26T11:57:03;101146.25;;;2.13;100.00
4586;BME280;2305;50.118;8.952;2023-01-26T11:59:38;101140.47;;;2.05;100.00
4586;BME280;2305;50.118;8.952;2023-01-26T12:02:23;101141.25;;;2.07;100.00
4586;BME280;2305;50.118;8.952;2023-01-26T12:04:57;101133.72;;;2.00;100.00
4586;BME280;2305;50.118;8.952;2023-01-26T12:07:30;101137.81;;;2.07;100.00
4586;BME280;2305;50.118;8.952;2023-01-26T12:10:04;101141.03;;;2.13;100.00
4586;BME280;2305;50.118;8.952;2023-01-26T12:12:41;101125.84;;;2.01;100.00
4586;BME280;2305;50.118;8.952;2023-01-26T12:15:16;101125.94;;;2.00;100.00
4586;BME280;2305;50.118;8.952;2023-01-26T12:17:57;101130.84;;;2.07;100.00
4586;BME280;2305;50.118;8.952;2023-01-26T12:20:34;101117.97;;;2.04;100.00
4586;BME280;2305;50.118;8.952;2023-01-26T12:23:10;101106.63;;;2.07;100.00
4586;BME280;2305;50.118;8.952;2023-01-26T12:25:44;101105.06;;;2.01;100.00
4586;BME280;2305;50.118;8.952;2023-01-26T12:28:19;101108.38;;;2.06;100.00
4586;BME280;2305;50.118;8.952;2023-01-26T12:30:54;101107.78;;;1.98;100.00
4586;BME280;2305;50.118;8.952;2023-01-26T12:33:26;101108.09;;;1.89;100.00
4586;BME280;2305;50.118;8.952;2023-01-26T12:36:04;101106.28;;;1.91;100.00
4586;BME280;2305;50.118;8.952;2023-01-26T12:38:42;101106.13;;;1.96;100.00
4586;BME280;2305;50.118;8.952;2023-01-26T12:41:21;101094.75;;;2.00;100.00
4586;BME280;2305;50.118;8.952;2023-01-26T12:44:00;101092.91;;;2.03;100.00
4586;BME280;2305;50.118;8.952;2023-01-26T12:46:33;101092.78;;;2.06;100.00
4586;BME280;2305;50.118;8.952;2023-01-26T12:49:12;101090.22;;;2.05;100.00
4586;BME280;2305;50.118;8.952;2023-01-26T12:51:48;101084.75;;;2.12;100.00
4586;BME280;2305;50.118;8.952;2023-01-26T12:54:22;101088.44;;;2.07;100.00
4586;BME280;2305;50.118;8.952;2023-01-26T12:56:55;101075.53;;;2.04;100.00
4586;BME280;2305;50.118;8.952;2023-01-26T12:59:30;101077.00;;;2.11;100.00
4586;BME280;2305;50.118;8.952;2023-01-26T13:02:22;101080.47;;;2.11;100.00
4586;BME280;2305;50.118;8.952;2023-01-26T13:04:55;101084.13;;;2.06;100.00
4586;BME280;2305;50.118;8.952;2023-01-26T13:07:30;101079.66;;;2.09;100.00
4586;BME280;2305;50.118;8.952;2023-01-26T13:10:20;101082.88;;;2.17;100.00
4586;BME280;2305;50.118;8.952;2023-01-26T13:12:51;101077.59;;;2.19;100.00
4586;BME280;2305;50.118;8.952;2023-01-26T13:15:22;101082.88;;;2.17;100.00
4586;BME280;2305;50.118;8.952;2023-01-26T13:17:53;101082.03;;;2.15;100.00
4586;BME280;2305;50.118;8.952;2023-01-26T13:20:46;101080.16;;;2.20;100.00
4586;BME280;2305;50.118;8.952;2023-01-26T13:23:48;101078.53;;;2.16;100.00
4586;BME280;2305;50.118;8.952;2023-01-26T13:26:42;101086.25;;;2.19;100.00
4586;BME280;2305;50.118;8.952;2023-01-26T13:29:32;101078.28;;;2.24;100.00
4586;BME280;2305;50.118;8.952;2023-01-26T13:35:02;101088.44;;;2.31;100.00
4586;BME280;2305;50.118;8.952;2023-01-26T13:37:42;101090.16;;;2.31;100.00
4586;BME280;2305;50.118;8.952;2023-01-26T13:40:18;101078.69;;;2.36;100.00
4586;BME280;2305;50.118;8.952;2023-01-26T13:42:55;101078.69;;;2.36;100.00
4586;BME280;2305;50.118;8.952;2023-01-26T13:45:31;101083.66;;;2.42;100.00
4586;BME280;2305;50.118;8.952;2023-01-26T13:48:06;101076.44;;;2.50;100.00
4586;BME280;2305;50.118;8.952;2023-01-26T13:50:42;101078.94;;;2.53;100.00